Time;durP1;ratioP1;P1;durP2;ratioP2;P2;SDS_P1;SDS_P2;PMS_P1;PMS_P2;Temp;Humidity;BMP_temperature;BMP_pressure;BME280_temperature;BME280_humidity;BME280_pressure;Samples;Min_cycle;Max_cycle;Signal;HPM_P1;HPM_P2
2022/08/08 00:00:48;;;;;;;14.02;8.13;;;;;;;13.00;94.06;102373.94;1030635;28;20494;-76
2022/08/08 00:01:41;;;;;;;12.30;6.15;;;;;;;13.07;94.41;102382.00;1026982;28;20050;-76
2022/08/08 00:03:03;;;;;;;9.07;6.60;;;;;;;13.04;94.27;102377.03;1033984;28;20757;-75
2022/08/08 00:04:04;;;;;;;14.55;6.28;;;;;;;13.05;94.59;102370.66;1032108;28;20038;-76
2022/08/08 00:04:47;;;;;;;8.07;6.85;;;;;;;13.09;94.49;102371.91;1029193;28;20046;-75
2022/08/08 00:05:32;;;;;;;7.25;6.20;;;;;;;13.11;94.48;102370.69;1026634;28;20520;-75
2022/08/08 00:06:44;;;;;;;8.00;5.95;;;;;;;13.11;94.09;102368.03;1029295;28;20050;-75
2022/08/08 00:07:25;;;;;;;7.88;6.78;;;;;;;13.15;94.72;102368.50;1033867;28;20437;-76
2022/08/08 00:08:11;;;;;;;9.07;6.10;;;;;;;13.19;94.19;102364.41;1031137;28;20289;-76
2022/08/08 00:09:00;;;;;;;14.27;7.07;;;;;;;12.93;93.79;102367.69;1030762;28;20442;-76
2022/08/08 00:10:04;;;;;;;11.00;6.95;;;;;;;13.00;93.55;102373.94;1027331;28;20302;-75
2022/08/08 00:10:42;;;;;;;9.27;6.40;;;;;;;12.92;93.37;102371.41;1026923;28;20077;-75
2022/08/08 00:11:33;;;;;;;10.35;7.50;;;;;;;13.02;93.88;102371.06;1025865;28;20035;-76
2022/08/08 00:12:37;;;;;;;9.23;7.05;;;;;;;13.05;93.64;102376.84;1024567;28;20046;-76
2022/08/08 00:13:19;;;;;;;12.43;6.43;;;;;;;12.93;92.62;102373.88;1026437;28;20047;-76
2022/08/08 00:14:35;;;;;;;8.10;5.80;;;;;;;12.60;93.99;102373.59;1027453;28;20510;-75
2022/08/08 00:15:31;;;;;;;8.40;6.13;;;;;;;12.56;93.87;102383.00;1028090;28;20042;-76
2022/08/08 00:16:26;;;;;;;7.45;5.43;;;;;;;12.55;94.45;102383.19;1027102;28;20050;-75
2022/08/08 00:17:24;;;;;;;9.88;7.18;;;;;;;12.57;93.79;102371.28;1023483;29;20051;-75
2022/08/08 00:18:17;;;;;;;10.18;6.78;;;;;;;12.40;94.64;102374.44;1030772;28;20407;-75
2022/08/08 00:19:12;;;;;;;10.68;6.30;;;;;;;12.36;94.13;102376.66;1033854;28;20038;-76
2022/08/08 00:19:48;;;;;;;9.48;6.47;;;;;;;12.43;93.88;102382.91;1030679;28;20046;-75
2022/08/08 00:20:44;;;;;;;10.75;7.28;;;;;;;12.46;93.95;102376.34;1023039;29;20035;-76
2022/08/08 00:21:25;;;;;;;14.32;7.60;;;;;;;12.38;93.52;102379.97;1023744;28;20138;-75
2022/08/08 00:22:09;;;;;;;7.43;5.90;;;;;;;12.32;94.37;102380.72;1029792;28;20286;-76
2022/08/08 00:22:49;;;;;;;12.02;7.05;;;;;;;12.37;93.79;102378.31;1031225;28;20035;-75
2022/08/08 00:23:33;;;;;;;8.75;5.93;;;;;;;12.29;94.04;102376.56;1031356;28;20106;-76
2022/08/08 00:24:21;;;;;;;6.50;5.80;;;;;;;12.21;94.46;102381.22;1030738;28;20290;-75
2022/08/08 00:25:02;;;;;;;6.70;6.05;;;;;;;12.14;95.06;102377.66;1030709;28;20561;-75
2022/08/08 00:25:45;;;;;;;7.93;6.22;;;;;;;12.04;95.84;102378.75;1026863;28;20042;-75
2022/08/08 00:26:34;;;;;;;9.23;6.30;;;;;;;12.23;95.76;102377.34;1026629;28;20050;-75
2022/08/08 00:27:08;;;;;;;8.93;6.70;;;;;;;12.35;96.15;102377.69;1027525;28;20794;-75
2022/08/08 00:27:41;;;;;;;7.43;6.72;;;;;;;12.44;96.46;102379.19;1028914;28;20122;-76
2022/08/08 00:28:15;;;;;;;9.15;7.80;;;;;;;12.46;96.11;102377.16;1030912;28;20038;-76
2022/08/08 00:29:12;;;;;;;6.63;6.03;;;;;;;12.51;95.94;102380.09;1033584;28;20038;-75
2022/08/08 00:29:58;;;;;;;7.32;6.38;;;;;;;12.53;96.61;102372.69;1031801;28;20404;-76
2022/08/08 00:30:34;;;;;;;7.53;6.40;;;;;;;12.59;96.11;102377.28;1025956;28;20526;-75
2022/08/08 00:31:28;;;;;;;8.25;7.10;;;;;;;12.63;95.11;102375.91;1028595;28;20042;-75
2022/08/08 00:32:30;;;;;;;9.43;6.82;;;;;;;12.72;95.03;102370.41;1029221;28;20597;-76
2022/08/08 00:33:18;;;;;;;8.25;7.00;;;;;;;12.56;94.94;102374.97;1028492;28;20047;-76
2022/08/08 00:35:43;;;;;;;7.95;6.43;;;;;;;12.48;94.95;102364.44;1030415;28;20364;-76
2022/08/08 00:36:26;;;;;;;10.75;7.20;;;;;;;12.39;95.25;102376.28;1032745;28;20304;-75
2022/08/08 00:37:36;;;;;;;6.47;5.85;;;;;;;12.19;95.07;102369.91;1027804;28;20329;-76
2022/08/08 00:38:34;;;;;;;10.55;5.90;;;;;;;12.10;95.71;102369.19;1028462;28;20062;-75
2022/08/08 00:39:40;;;;;;;7.80;6.47;;;;;;;12.20;96.03;102371.53;1028406;28;20105;-75
2022/08/08 00:40:37;;;;;;;8.25;5.63;;;;;;;12.19;95.56;102369.91;1027820;28;20050;-75
2022/08/08 00:41:31;;;;;;;7.22;6.40;;;;;;;12.01;95.82;102362.28;1028420;28;20039;-75
2022/08/08 00:42:47;;;;;;;8.13;5.47;;;;;;;11.82;95.78;102363.72;1031047;28;20052;-75
2022/08/08 00:43:49;;;;;;;7.22;6.00;;;;;;;11.81;96.32;102367.41;1034739;28;20054;-76
2022/08/08 00:44:31;;;;;;;11.90;5.28;;;;;;;11.81;96.02;102364.75;1031861;28;20042;-75
2022/08/08 00:45:32;;;;;;;6.82;6.15;;;;;;;11.66;96.30;102363.91;1032412;28;20557;-75
2022/08/08 00:46:16;;;;;;;7.43;6.05;;;;;;;11.58;96.59;102372.00;1029771;28;20102;-75
2022/08/08 00:46:50;;;;;;;7.85;5.57;;;;;;;11.55;97.17;102361.72;1032367;28;20046;-75
2022/08/08 00:47:48;;;;;;;6.90;6.20;;;;;;;11.40;97.81;102365.19;1031749;28;20042;-75
2022/08/08 00:48:55;;;;;;;9.73;5.72;;;;;;;11.40;98.96;102362.53;1026293;28;20609;-75
2022/08/08 00:49:44;;;;;;;7.32;6.53;;;;;;;11.31;99.35;102360.16;1028363;28;20495;-75
2022/08/08 00:50:44;;;;;;;7.78;7.07;;;;;;;11.23;99.76;102358.41;1031351;28;20293;-75
2022/08/08 00:51:49;;;;;;;8.00;5.93;;;;;;;11.10;100.00;102358.19;1031980;28;20305;-76
2022/08/08 00:52:45;;;;;;;5.85;5.28;;;;;;;11.03;100.00;102360.78;1026103;28;20043;-75
2022/08/08 00:53:35;;;;;;;6.22;5.63;;;;;;;10.95;100.00;102358.16;1020314;29;20496;-75
2022/08/08 00:55:00;;;;;;;7.22;6.13;;;;;;;10.96;100.00;102356.34;1023474;29;20310;-75
2022/08/08 00:56:03;;;;;;;7.75;6.63;;;;;;;10.93;100.00;102352.19;1024448;29;20385;-75
2022/08/08 00:57:20;;;;;;;29.30;7.32;;;;;;;11.04;100.00;102353.59;1023681;29;20667;-75
2022/08/08 00:58:35;;;;;;;12.73;6.53;;;;;;;10.99;100.00;102345.31;1028537;28;20817;-75
2022/08/08 00:59:33;;;;;;;35.00;9.38;;;;;;;10.94;100.00;102356.50;1015687;29;20795;-75
2022/08/08 01:00:27;;;;;;;17.85;8.55;;;;;;;11.10;100.00;102347.53;1030672;28;20051;-75
2022/08/08 01:01:36;;;;;;;33.38;9.07;;;;;;;11.10;100.00;102352.84;1028017;28;20484;-76
2022/08/08 01:02:58;;;;;;;9.10;6.65;;;;;;;11.32;100.00;102354.63;1032294;28;20405;-75
2022/08/08 01:04:28;;;;;;;10.70;7.38;;;;;;;11.43;100.00;102353.31;1032399;28;20537;-75
2022/08/08 01:05:27;;;;;;;7.78;6.15;;;;;;;11.54;100.00;102357.38;1028456;28;20302;-75
2022/08/08 01:06:40;;;;;;;8.30;6.85;;;;;;;11.60;100.00;102353.97;1034252;28;20312;-75
2022/08/08 01:07:16;;;;;;;8.30;6.90;;;;;;;11.62;100.00;102357.28;1031850;28;20351;-76
2022/08/08 01:08:26;;;;;;;8.13;6.38;;;;;;;11.65;100.00;102356.91;1028705;28;20674;-75
2022/08/08 01:09:22;;;;;;;14.70;6.32;;;;;;;11.63;99.62;102354.44;1026359;28;20039;-75
2022/08/08 01:10:49;;;;;;;7.10;6.40;;;;;;;11.49;99.15;102352.59;1028519;28;20306;-76
2022/08/08 01:11:32;;;;;;;9.48;7.05;;;;;;;11.45;99.57;102357.47;1028912;28;20298;-75
2022/08/08 01:12:34;;;;;;;7.03;6.18;;;;;;;11.51;100.00;102355.91;1027906;28;20317;-75
2022/08/08 01:13:41;;;;;;;7.18;6.50;;;;;;;11.39;99.74;102358.22;1026381;28;20310;-75
2022/08/08 01:14:51;;;;;;;7.28;6.57;;;;;;;11.48;99.46;102355.44;1032588;28;20379;-75
2022/08/08 01:15:44;;;;;;;9.43;6.43;;;;;;;11.45;100.00;102362.78;1028308;28;20313;-76
2022/08/08 01:17:02;;;;;;;7.07;6.38;;;;;;;11.45;100.00;102352.13;1028276;28;20305;-75
2022/08/08 01:17:53;;;;;;;7.43;6.45;;;;;;;11.54;100.00;102357.38;1031760;28;20669;-75
2022/08/08 01:18:50;;;;;;;8.20;7.18;;;;;;;11.64;100.00;102360.59;1035712;28;20299;-75
2022/08/08 01:19:59;;;;;;;8.30;7.10;;;;;;;11.71;100.00;102358.81;1031460;28;20297;-76
2022/08/08 01:21:07;;;;;;;8.75;7.55;;;;;;;11.65;99.73;102367.59;1032284;28;20298;-76
2022/08/08 01:21:55;;;;;;;10.02;7.65;;;;;;;11.54;100.00;102368.06;1019446;29;20351;-76
2022/08/08 01:23:14;;;;;;;7.45;6.68;;;;;;;11.40;100.00;102359.88;1023272;28;20827;-76
2022/08/08 01:24:26;;;;;;;7.10;6.43;;;;;;;11.55;99.99;102361.72;1024205;28;20512;-76
2022/08/08 01:25:04;;;;;;;8.25;6.85;;;;;;;11.49;99.19;102373.09;1020519;29;20055;-76
2022/08/08 01:25:55;;;;;;;7.97;6.03;;;;;;;11.46;98.61;102368.97;1018745;29;20315;-75
2022/08/08 01:27:18;;;;;;;9.57;5.32;;;;;;;11.45;97.80;102369.97;1028344;28;20529;-76
2022/08/08 01:28:00;;;;;;;7.00;6.30;;;;;;;11.42;97.96;102365.84;1024260;29;20302;-75
2022/08/08 01:29:21;;;;;;;6.97;6.35;;;;;;;11.28;97.60;102361.34;1026461;28;20341;-75
2022/08/08 01:30:14;;;;;;;10.50;5.88;;;;;;;11.23;97.94;102366.41;1014083;28;20125;-75
2022/08/08 01:31:12;;;;;;;7.15;6.20;;;;;;;11.18;99.21;102360.78;1031373;28;20920;-75
2022/08/08 01:32:43;;;;;;;6.90;6.20;;;;;;;11.30;99.92;102370.00;1027981;28;20306;-75
2022/08/08 01:33:43;;;;;;;10.73;6.85;;;;;;;11.42;100.00;102357.00;1027841;28;20393;-75
2022/08/08 01:35:05;;;;;;;7.25;6.30;;;;;;;11.52;100.00;102362.09;1031121;28;20309;-76
2022/08/08 01:36:43;;;;;;;10.07;6.70;;;;;;;11.58;100.00;102361.34;1032464;28;20297;-75
2022/08/08 01:37:26;;;;;;;10.63;7.65;;;;;;;11.46;99.26;102359.13;1018980;29;20340;-75
2022/08/08 01:39:00;;;;;;;11.65;6.80;;;;;;;11.40;99.38;102359.03;1032552;28;20944;-76
2022/08/08 01:39:45;;;;;;;10.23;7.35;;;;;;;11.30;100.00;102362.00;1020502;29;20311;-76
2022/08/08 01:40:28;;;;;;;11.15;6.63;;;;;;;11.28;100.00;102356.00;1019775;29;20311;-75
2022/08/08 01:41:26;;;;;;;8.35;7.03;;;;;;;11.36;100.00;102357.75;1016243;29;20307;-75
2022/08/08 01:42:45;;;;;;;8.57;6.30;;;;;;;11.12;100.00;102366.84;1017340;29;20163;-76
2022/08/08 01:43:39;;;;;;;7.22;6.35;;;;;;;11.07;100.00;102359.38;1020531;28;20300;-75
2022/08/08 01:44:40;;;;;;;7.07;6.35;;;;;;;11.04;100.00;102361.59;1025763;28;20351;-75
2022/08/08 01:45:44;;;;;;;12.80;6.13;;;;;;;11.06;100.00;102367.56;1024857;28;20453;-75
2022/08/08 01:46:47;;;;;;;8.15;6.35;;;;;;;11.09;100.00;102362.69;1027842;28;20298;-75
2022/08/08 01:47:46;;;;;;;8.60;6.47;;;;;;;11.13;99.85;102364.00;1027832;28;20046;-75
2022/08/08 01:48:52;;;;;;;;;;;;;;;11.16;100.00;102362.78;1028260;28;20337;-75
2022/08/08 01:49:47;;;;;;;9.13;6.63;;;;;;;11.12;99.98;102362.34;1024676;28;19946;-75
2022/08/08 01:50:39;;;;;;;7.05;6.35;;;;;;;11.05;100.00;102360.59;1025588;28;20698;-76
2022/08/08 01:51:33;;;;;;;13.32;6.78;;;;;;;10.87;100.00;102366.25;1021621;29;20052;-75
2022/08/08 01:52:56;;;;;;;7.72;6.53;;;;;;;10.74;100.00;102371.38;1027543;28;20302;-76
2022/08/08 01:53:53;;;;;;;6.65;5.97;;;;;;;10.93;100.00;102359.34;1027738;28;20362;-76
2022/08/08 01:55:09;;;;;;;9.48;6.45;;;;;;;10.87;99.81;102368.06;1023506;28;20039;-75
2022/08/08 01:56:06;;;;;;;9.55;6.93;;;;;;;10.84;100.00;102362.09;1027043;28;20381;-75
2022/08/08 01:57:09;;;;;;;6.68;6.00;;;;;;;10.84;99.88;102358.59;1026951;28;20313;-76
2022/08/08 01:57:55;;;;;;;7.22;6.53;;;;;;;10.90;99.48;102365.88;1023831;29;20302;-76
2022/08/08 01:59:07;;;;;;;8.35;6.15;;;;;;;10.97;99.63;102366.00;1018885;29;20047;-75
2022/08/08 02:00:06;;;;;;;7.07;6.32;;;;;;;10.89;99.73;102361.56;1006770;29;20298;-75
2022/08/08 02:01:05;;;;;;;7.55;6.80;;;;;;;10.82;99.84;102366.78;1023490;29;20311;-75
2022/08/08 02:02:09;;;;;;;8.45;7.15;;;;;;;10.69;99.71;102360.44;1026713;28;20318;-75
2022/08/08 02:03:14;;;;;;;6.90;6.20;;;;;;;10.68;100.00;102354.28;1027429;28;20333;-76
2022/08/08 02:04:32;;;;;;;8.73;6.82;;;;;;;10.67;100.00;102360.56;1027196;28;20305;-75
2022/08/08 02:05:50;;;;;;;7.07;6.38;;;;;;;10.61;100.00;102361.31;1019435;29;20354;-75
2022/08/08 02:06:55;;;;;;;13.65;6.43;;;;;;;10.59;100.00;102360.66;1011420;29;20350;-72
2022/08/08 02:08:05;;;;;;;7.95;6.80;;;;;;;10.46;100.00;102357.78;1019517;29;20786;-75
2022/08/08 02:08:51;;;;;;;7.43;6.72;;;;;;;10.46;100.00;102355.94;1019925;29;20303;-76
2022/08/08 02:09:53;;;;;;;7.72;6.82;;;;;;;10.41;100.00;102354.81;1015277;29;20320;-76
2022/08/08 02:10:43;;;;;;;7.78;7.07;;;;;;;10.39;100.00;102354.13;1023372;29;20338;-76
2022/08/08 02:11:31;;;;;;;8.02;6.85;;;;;;;10.39;100.00;102349.63;1029098;28;20314;-76
2022/08/08 02:12:30;;;;;;;8.75;7.90;;;;;;;10.33;100.00;102354.84;1027709;28;20325;-75
2022/08/08 02:13:24;;;;;;;8.07;7.28;;;;;;;10.29;100.00;102353.56;1019316;29;20342;-75
2022/08/08 02:14:40;;;;;;;7.72;6.78;;;;;;;10.21;100.00;102349.94;1023481;28;20885;-76
2022/08/08 02:15:37;;;;;;;8.38;6.50;;;;;;;10.16;100.00;102346.97;1025092;28;20339;-76
2022/08/08 02:16:27;;;;;;;9.93;6.50;;;;;;;10.09;100.00;102348.66;1023553;29;20334;-76
2022/08/08 02:17:22;;;;;;;8.05;6.88;;;;;;;10.01;100.00;102350.53;1022836;29;20043;-76
2022/08/08 02:18:06;;;;;;;10.52;6.80;;;;;;;9.96;100.00;102343.09;1019413;29;20309;-75
2022/08/08 02:18:52;;;;;;;7.95;6.88;;;;;;;9.97;100.00;102339.41;1017462;29;20374;-75
2022/08/08 02:19:44;;;;;;;7.63;6.13;;;;;;;9.96;100.00;102345.75;1020484;28;20306;-76
2022/08/08 02:22:53;;;;;;;9.60;7.20;;;;;;;9.93;100.00;102343.44;1023582;29;20371;-76
2022/08/08 02:23:34;;;;;;;7.80;6.38;;;;;;;9.91;100.00;102346.28;1023487;29;20307;-76
2022/08/08 02:24:06;;;;;;;9.25;8.35;;;;;;;9.90;100.00;102349.13;1024614;28;20291;-76
2022/08/08 02:24:54;;;;;;;9.38;8.25;;;;;;;9.89;100.00;102358.09;1026043;28;20298;-75
2022/08/08 02:25:43;;;;;;;9.60;7.50;;;;;;;9.89;100.00;102347.47;1019333;29;20311;-76
2022/08/08 02:26:40;;;;;;;7.28;6.57;;;;;;;10.00;100.00;102344.38;1020336;29;20837;-75
2022/08/08 02:27:17;;;;;;;8.75;7.85;;;;;;;10.01;100.00;102348.72;1027826;28;20393;-76
2022/08/08 02:28:05;;;;;;;9.27;8.30;;;;;;;10.03;100.00;102349.34;1023407;29;20050;-76
2022/08/08 02:28:44;;;;;;;8.98;7.72;;;;;;;10.11;100.00;102351.97;1018943;29;20319;-75
2022/08/08 02:29:39;;;;;;;8.23;7.43;;;;;;;10.20;100.00;102345.63;1023304;29;20438;-75
2022/08/08 02:31:01;;;;;;;9.00;8.20;;;;;;;10.31;100.00;102347.03;1023714;28;20307;-75
2022/08/08 02:31:51;;;;;;;11.93;7.50;;;;;;;10.36;100.00;102344.66;1021379;29;20300;-75
2022/08/08 02:32:40;;;;;;;19.00;8.85;;;;;;;10.40;100.00;102350.47;1023654;29;20306;-75
2022/08/08 02:33:23;;;;;;;8.63;7.80;;;;;;;10.46;100.00;102349.78;1024274;28;20388;-75
2022/08/08 02:34:22;;;;;;;8.77;7.88;;;;;;;10.36;100.00;102355.31;1024233;28;20138;-75
2022/08/08 02:35:34;;;;;;;11.23;7.32;;;;;;;10.47;100.00;102354.94;1023676;28;20338;-75
2022/08/08 02:36:38;;;;;;;9.10;6.47;;;;;;;10.47;100.00;102359.44;1026732;28;20310;-75
2022/08/08 02:37:27;;;;;;;8.32;6.22;;;;;;;10.55;100.00;102359.34;1023134;29;20306;-75
2022/08/08 02:38:42;;;;;;;8.80;7.38;;;;;;;10.54;100.00;102357.69;1020350;29;20300;-75
2022/08/08 02:40:06;;;;;;;10.32;7.35;;;;;;;10.36;100.00;102354.50;1023337;29;20438;-75
2022/08/08 02:41:03;;;;;;;8.15;6.75;;;;;;;10.40;100.00;102353.97;1006957;29;20419;-75
2022/08/08 02:42:18;;;;;;;9.02;6.75;;;;;;;10.49;100.00;102357.41;1020293;29;20299;-75
2022/08/08 02:43:48;;;;;;;9.55;8.15;;;;;;;10.47;100.00;102362.09;1022351;29;20306;-75
2022/08/08 02:45:02;;;;;;;7.32;6.63;;;;;;;10.28;100.00;102362.56;1023478;29;20819;-75
2022/08/08 02:46:06;;;;;;;10.23;6.80;;;;;;;10.26;100.00;102359.25;1023245;29;20309;-75
2022/08/08 02:46:47;;;;;;;8.10;7.28;;;;;;;10.34;100.00;102352.00;1022745;29;20306;-75
2022/08/08 02:47:34;;;;;;;8.80;7.22;;;;;;;10.45;100.00;102353.44;1022211;28;20377;-74
2022/08/08 02:48:21;;;;;;;8.93;8.02;;;;;;;10.53;100.00;102356.88;1023509;29;20357;-75
2022/08/08 02:49:12;;;;;;;9.32;7.57;;;;;;;10.56;100.00;102360.19;1026792;28;20408;-75
2022/08/08 02:49:50;;;;;;;9.80;7.35;;;;;;;10.55;100.00;102356.69;1023298;28;20307;-75
2022/08/08 02:51:03;;;;;;;8.88;7.55;;;;;;;10.39;100.00;102357.63;1023249;29;20365;-75
2022/08/08 02:52:12;;;;;;;11.15;7.80;;;;;;;10.34;100.00;102367.16;1022954;29;20338;-75
2022/08/08 02:53:21;;;;;;;8.15;6.40;;;;;;;10.23;100.00;102362.25;1011326;29;20311;-75
2022/08/08 02:54:16;;;;;;;7.40;6.68;;;;;;;10.40;100.00;102364.63;1027329;28;20372;-75
2022/08/08 02:55:32;;;;;;;8.02;7.13;;;;;;;10.44;100.00;102357.13;1027022;28;20419;-75
2022/08/08 02:56:30;;;;;;;7.80;6.38;;;;;;;10.67;100.00;102365.06;1010983;29;20301;-75
2022/08/08 02:57:40;;;;;;;10.15;6.25;;;;;;;10.56;100.00;102366.34;1022559;29;20361;-75
2022/08/08 02:58:54;;;;;;;7.55;6.85;;;;;;;10.49;100.00;102360.06;1026864;28;20343;-75
2022/08/08 02:59:52;;;;;;;8.65;7.10;;;;;;;10.52;100.00;102362.38;1021732;29;20310;-75
2022/08/08 03:01:08;;;;;;;7.22;6.53;;;;;;;10.48;100.00;102369.06;1022844;28;20333;-75
2022/08/08 03:02:09;;;;;;;9.25;6.63;;;;;;;10.50;100.00;102367.06;1019411;29;20307;-75
2022/08/08 03:03:10;;;;;;;7.15;6.35;;;;;;;10.53;100.00;102366.69;1023489;28;20042;-75
2022/08/08 03:04:04;;;;;;;7.90;6.90;;;;;;;10.61;100.00;102365.81;1019252;29;20306;-75
2022/08/08 03:05:26;;;;;;;6.60;6.00;;;;;;;10.49;100.00;102365.41;1022988;28;20303;-75
2022/08/08 03:06:35;;;;;;;11.57;6.70;;;;;;;10.50;100.00;102367.06;1023297;29;20303;-75
2022/08/08 03:08:02;;;;;;;6.40;5.38;;;;;;;10.28;100.00;102367.88;1026857;28;20313;-75
2022/08/08 03:09:12;;;;;;;8.88;6.32;;;;;;;10.27;100.00;102371.56;1010708;29;20296;-75
2022/08/08 03:10:22;;;;;;;5.60;5.10;;;;;;;10.36;100.00;102370.47;1015445;29;20776;-75
2022/08/08 03:11:20;;;;;;;7.63;6.10;;;;;;;10.40;100.00;102361.94;1016997;28;20417;-75
2022/08/08 03:12:19;;;;;;;6.10;5.55;;;;;;;10.45;100.00;102364.09;1027546;28;20855;-75
2022/08/08 03:13:42;;;;;;;6.78;5.82;;;;;;;10.26;99.87;102364.56;1022881;29;20066;-75
2022/08/08 03:14:58;;;;;;;6.60;6.00;;;;;;;10.14;100.00;102361.47;1027232;28;20367;-75
2022/08/08 03:16:11;;;;;;;7.85;5.40;;;;;;;10.20;100.00;102372.25;1023066;29;20314;-75
2022/08/08 03:17:19;;;;;;;14.30;5.25;;;;;;;10.29;100.00;102364.22;1027474;28;20297;-75
2022/08/08 03:18:34;;;;;;;7.75;5.30;;;;;;;10.25;100.00;102366.41;1027139;28;20326;-75
2022/08/08 03:19:43;;;;;;;8.60;5.38;;;;;;;10.36;100.00;102359.81;1021109;29;20311;-75
2022/08/08 03:20:22;;;;;;;6.00;5.43;;;;;;;10.39;100.00;102365.63;1018693;29;20683;-75
2022/08/08 03:20:56;;;;;;;5.88;5.00;;;;;;;10.48;100.00;102363.75;1021523;29;20050;-75
2022/08/08 03:21:35;;;;;;;6.97;5.75;;;;;;;10.53;100.00;102369.38;1018957;29;20472;-75
2022/08/08 03:22:27;;;;;;;9.43;6.05;;;;;;;10.56;100.00;102369.00;1015318;29;20728;-75
2022/08/08 03:23:20;;;;;;;7.47;6.50;;;;;;;10.46;100.00;102366.59;1019042;29;20308;-75
2022/08/08 03:23:52;;;;;;;6.07;5.60;;;;;;;10.44;100.00;102373.09;1019159;29;20304;-75
2022/08/08 03:24:33;;;;;;;5.50;5.00;;;;;;;10.39;100.00;102380.78;1023306;29;20307;-75
2022/08/08 03:25:06;;;;;;;7.00;6.43;;;;;;;10.33;100.00;102370.84;1023069;29;20046;-75
2022/08/08 03:25:51;;;;;;;6.15;5.60;;;;;;;10.22;100.00;102374.75;1027172;28;20662;-75
2022/08/08 03:26:30;;;;;;;6.93;6.22;;;;;;;10.25;100.00;102376.22;1027428;28;20388;-75
2022/08/08 03:27:26;;;;;;;6.22;5.35;;;;;;;10.28;100.00;102373.22;1018682;29;20296;-75
2022/08/08 03:27:59;;;;;;;6.25;5.75;;;;;;;10.33;100.00;102370.84;1019455;29;20303;-75
2022/08/08 03:28:45;;;;;;;6.07;5.47;;;;;;;10.28;100.00;102370.53;1011937;29;20309;-75
2022/08/08 03:29:26;;;;;;;5.90;5.40;;;;;;;10.27;100.00;102377.72;1021755;29;20335;-75
2022/08/08 03:30:21;;;;;;;6.18;5.57;;;;;;;10.38;100.00;102376.47;1017287;29;20359;-75
2022/08/08 03:30:53;;;;;;;5.95;5.45;;;;;;;10.29;100.00;102374.88;1011641;29;20304;-75
2022/08/08 03:33:40;;;;;;;6.85;6.25;;;;;;;10.44;100.00;102383.75;1022495;29;20790;-75
2022/08/08 03:34:34;;;;;;;7.07;6.07;;;;;;;10.42;100.00;102381.28;1020164;29;20406;-75
2022/08/08 03:35:11;;;;;;;6.50;5.90;;;;;;;10.42;100.00;102378.63;1019005;29;20765;-75
2022/08/08 03:35:46;;;;;;;5.95;5.45;;;;;;;10.44;100.00;102378.44;1019009;29;20303;-75
2022/08/08 03:36:20;;;;;;;5.20;4.72;;;;;;;10.41;100.00;102378.78;1019168;29;21067;-75
2022/08/08 03:37:01;;;;;;;5.00;4.60;;;;;;;10.44;100.00;102387.25;1020590;28;20307;-75
2022/08/08 03:37:54;;;;;;;6.78;6.07;;;;;;;10.34;100.00;102380.47;1019467;29;20308;-75
2022/08/08 03:38:51;;;;;;;5.00;4.60;;;;;;;10.33;100.00;102386.81;1019301;29;20660;-75
2022/08/08 03:39:35;;;;;;;5.07;4.57;;;;;;;10.30;100.00;102380.00;1024093;28;20303;-75
2022/08/08 03:40:27;;;;;;;7.53;4.57;;;;;;;10.23;100.00;102375.56;1027941;28;20294;-75
2022/08/08 03:41:06;;;;;;;5.40;5.00;;;;;;;10.19;100.00;102389.22;1023239;29;20348;-75
2022/08/08 03:41:58;;;;;;;5.95;5.32;;;;;;;10.30;100.00;102387.16;1016879;29;20311;-75
2022/08/08 03:42:50;;;;;;;7.00;5.78;;;;;;;10.37;100.00;102377.47;1019878;29;20302;-75
2022/08/08 03:43:27;;;;;;;5.60;5.13;;;;;;;10.36;100.00;102381.13;1023177;28;20303;-75
2022/08/08 03:44:09;;;;;;;7.57;5.72;;;;;;;10.35;100.00;102384.81;1023172;28;20303;-75
2022/08/08 03:44:44;;;;;;;8.25;5.80;;;;;;;10.28;100.00;102382.03;1022441;29;20299;-75
2022/08/08 03:45:25;;;;;;;5.78;5.18;;;;;;;10.21;100.00;102379.25;1021367;29;20307;-75
2022/08/08 03:46:17;;;;;;;7.63;5.68;;;;;;;10.29;100.00;102385.53;1023032;28;20050;-75
2022/08/08 03:46:55;;;;;;;6.22;5.68;;;;;;;10.25;100.00;102390.38;1017247;29;20436;-75
2022/08/08 03:47:29;;;;;;;7.03;6.43;;;;;;;10.31;100.00;102381.66;1021919;28;20302;-75
2022/08/08 03:48:16;;;;;;;7.78;6.90;;;;;;;10.43;100.00;102379.44;1023143;29;20810;-75
2022/08/08 03:49:16;;;;;;;10.10;7.93;;;;;;;10.42;100.00;102385.78;1021053;29;20872;-75
2022/08/08 03:50:16;;;;;;;7.20;6.55;;;;;;;10.51;100.00;102382.88;1025184;28;20330;-75
2022/08/08 03:50:55;;;;;;;9.07;8.18;;;;;;;10.51;100.00;102382.03;1021163;29;20309;-75
2022/08/08 03:51:28;;;;;;;9.05;8.15;;;;;;;10.52;100.00;102391.69;1019194;29;20295;-75
2022/08/08 03:52:20;;;;;;;8.55;7.65;;;;;;;10.55;100.00;102380.66;1014928;29;20313;-75
2022/08/08 03:52:52;;;;;;;8.00;7.30;;;;;;;10.57;100.00;102381.31;1021879;29;20310;-76
2022/08/08 03:53:25;;;;;;;8.77;7.97;;;;;;;10.68;100.00;102385.38;1018025;29;20435;-75
2022/08/08 03:54:18;;;;;;;10.02;9.13;;;;;;;10.74;100.00;102388.19;1019422;29;20306;-75
2022/08/08 03:55:15;;;;;;;9.18;8.20;;;;;;;10.66;100.00;102388.22;1015029;29;20324;-75
2022/08/08 03:56:08;;;;;;;8.73;7.82;;;;;;;10.61;100.00;102387.94;1017434;29;20307;-75
2022/08/08 03:57:00;;;;;;;9.25;7.82;;;;;;;10.61;100.00;102382.63;1021570;29;20667;-75
2022/08/08 03:57:54;;;;;;;10.00;8.50;;;;;;;10.68;100.00;102380.91;1024348;28;20670;-75
2022/08/08 03:58:50;;;;;;;9.70;7.85;;;;;;;10.57;100.00;102388.50;1027126;28;20332;-75
2022/08/08 03:59:28;;;;;;;10.35;7.47;;;;;;;10.64;100.00;102384.09;1026893;28;20682;-75
2022/08/08 04:00:08;;;;;;;9.48;8.48;;;;;;;10.64;100.00;102390.25;1026949;28;20396;-75
2022/08/08 04:00:55;;;;;;;10.15;8.80;;;;;;;10.69;100.00;102387.91;1022985;29;20302;-76
2022/08/08 04:01:50;;;;;;;8.93;8.07;;;;;;;10.73;100.00;102394.53;1017507;29;20672;-76
2022/08/08 04:02:43;;;;;;;11.40;8.77;;;;;;;10.58;100.00;102390.97;1025489;28;20054;-75
2022/08/08 04:03:23;;;;;;;9.02;8.13;;;;;;;10.61;100.00;102389.78;1013335;29;20332;-76
2022/08/08 04:04:18;;;;;;;8.98;8.07;;;;;;;10.63;100.00;102393.09;1018737;29;20530;-75
2022/08/08 04:04:53;;;;;;;9.50;8.40;;;;;;;10.53;100.00;102394.19;1015875;29;20300;-75
2022/08/08 04:05:35;;;;;;;10.48;9.57;;;;;;;10.62;100.00;102394.94;1018786;29;20387;-75
2022/08/08 04:06:15;;;;;;;11.73;8.63;;;;;;;10.71;100.00;102390.38;1014388;29;20307;-76
2022/08/08 04:06:57;;;;;;;10.43;9.35;;;;;;;10.77;100.00;102390.50;1021471;29;20818;-75
2022/08/08 04:07:39;;;;;;;10.27;9.18;;;;;;;10.81;100.00;102397.13;1019072;29;20738;-76
2022/08/08 04:08:22;;;;;;;9.10;8.32;;;;;;;10.69;100.00;102397.75;1018708;29;20043;-76
2022/08/08 04:09:07;;;;;;;10.07;9.13;;;;;;;10.66;100.00;102393.56;1019436;29;20832;-76
2022/08/08 04:09:55;;;;;;;9.23;8.38;;;;;;;10.62;100.00;102392.28;1020908;28;20423;-75
2022/08/08 04:10:37;;;;;;;9.60;7.97;;;;;;;10.63;100.00;102399.25;1023208;29;20334;-76
2022/08/08 04:11:11;;;;;;;9.25;8.45;;;;;;;10.65;100.00;102397.25;1025784;28;20317;-76
2022/08/08 04:11:53;;;;;;;10.00;9.00;;;;;;;10.56;100.00;102398.31;1022703;28;20299;-76
2022/08/08 04:12:34;;;;;;;9.60;8.10;;;;;;;10.53;100.00;102399.50;1018735;29;20798;-76
2022/08/08 04:13:06;;;;;;;8.32;7.55;;;;;;;10.53;100.00;102399.50;1015282;29;20428;-76
2022/08/08 04:14:02;;;;;;;7.65;6.85;;;;;;;10.52;100.00;102403.16;1019462;29;20311;-76
2022/08/08 04:14:55;;;;;;;7.65;6.88;;;;;;;10.48;100.00;102401.03;1026098;28;20309;-76
2022/08/08 04:15:27;;;;;;;10.82;7.68;;;;;;;10.46;100.00;102398.56;1023233;28;20298;-76
2022/08/08 04:16:09;;;;;;;8.13;7.35;;;;;;;10.41;100.00;102405.44;1017610;29;20308;-76
2022/08/08 04:16:45;;;;;;;8.65;7.43;;;;;;;10.36;100.00;102405.94;1015123;29;20307;-76
2022/08/08 04:17:20;;;;;;;8.05;7.32;;;;;;;10.38;100.00;102398.59;1015399;29;20299;-76
2022/08/08 04:18:11;;;;;;;8.77;7.38;;;;;;;10.41;100.00;102405.44;1012889;29;20309;-76
2022/08/08 04:18:49;;;;;;;8.98;8.18;;;;;;;10.31;100.00;102404.81;1023145;29;20829;-76
2022/08/08 04:19:25;;;;;;;8.95;8.13;;;;;;;10.29;100.00;102398.84;1019186;29;20366;-76